Time;durP1;ratioP1;P1;durP2;ratioP2;P2;SDS_P1;SDS_P2;PMS_P1;PMS_P2;Temp;Humidity;BMP_temperature;BMP_pressure;BME280_temperature;BME280_humidity;BME280_pressure;Samples;Min_cycle;Max_cycle;Signal;HPM_P1;HPM_P2
2022/05/15 00:00:37;;;;;;;6.70;1.27;;;41.30;10.80;;;;;;5026037;28;20052;-65
2022/05/15 00:03:10;;;;;;;4.68;1.05;;;41.20;10.50;;;;;;5033870;28;20044;-65
2022/05/15 00:05:37;;;;;;;5.18;0.80;;;41.00;10.70;;;;;;5031911;28;20029;-66
2022/05/15 00:08:04;;;;;;;2.53;1.20;;;41.00;10.80;;;;;;5029680;28;20021;-68
2022/05/15 00:10:30;;;;;;;5.00;0.95;;;40.90;11.40;;;;;;5026307;28;20116;-65
2022/05/15 00:12:57;;;;;;;5.55;0.95;;;41.00;11.00;;;;;;5010236;28;20112;-63
2022/05/15 00:15:23;;;;;;;4.63;0.77;;;41.00;11.70;;;;;;5060457;28;20079;-64
2022/05/15 00:17:50;;;;;;;2.40;0.73;;;40.90;11.40;;;;;;5033742;28;20033;-66
2022/05/15 00:20:16;;;;;;;3.80;1.20;;;40.90;11.70;;;;;;5026523;28;20060;-64
2022/05/15 00:22:43;;;;;;;2.00;1.00;;;40.80;11.00;;;;;;5025844;28;20021;-66
2022/05/15 00:25:09;;;;;;;4.40;1.00;;;40.60;10.80;;;;;;5040017;28;20030;-64
2022/05/15 00:27:36;;;;;;;4.45;1.08;;;40.60;11.00;;;;;;5031632;28;20033;-67
2022/05/15 00:30:03;;;;;;;5.20;1.10;;;40.50;11.00;;;;;;5038074;28;20021;-63
2022/05/15 00:32:29;;;;;;;4.10;1.35;;;40.40;11.40;;;;;;5038098;28;20021;-62
2022/05/15 00:34:55;;;;;;;6.53;1.00;;;40.50;11.70;;;;;;5016765;28;20021;-67
2022/05/15 00:37:22;;;;;;;5.25;1.05;;;40.50;11.30;;;;;;5016736;28;20025;-64
2022/05/15 00:39:48;;;;;;;4.10;0.85;;;40.40;11.10;;;;;;5033982;28;20029;-64
2022/05/15 00:42:14;;;;;;;3.65;1.38;;;40.30;10.70;;;;;;5025161;28;20025;-67
2022/05/15 00:44:41;;;;;;;7.32;0.90;;;40.20;10.80;;;;;;5032518;28;20028;-70
2022/05/15 00:47:07;;;;;;;5.13;0.90;;;40.20;11.80;;;;;;5038864;28;20049;-63
2022/05/15 00:49:37;;;;;;;3.50;0.90;;;40.10;11.70;;;;;;5063410;28;20029;-63
2022/05/15 00:52:09;;;;;;;4.53;0.85;;;40.00;11.20;;;;;;5035155;28;20074;-62
2022/05/15 00:54:51;;;;;;;4.80;1.13;;;39.90;11.40;;;;;;5041453;28;20029;-63
2022/05/15 00:57:22;;;;;;;6.47;1.25;;;39.80;11.50;;;;;;5038097;28;20115;-62
2022/05/15 01:00:11;;;;;;;3.88;1.10;;;39.70;12.00;;;;;;5040547;28;20108;-62
2022/05/15 01:02:41;;;;;;;7.13;1.10;;;39.60;11.00;;;;;;5038373;28;20074;-65
2022/05/15 01:05:10;;;;;;;26.17;2.15;;;39.50;10.80;;;;;;5033678;28;20080;-64
2022/05/15 01:07:36;;;;;;;8.00;1.58;;;39.40;10.90;;;;;;5033098;28;20037;-65
2022/05/15 01:10:05;;;;;;;5.78;0.95;;;39.30;11.40;;;;;;5034273;28;20064;-62
2022/05/15 01:12:33;;;;;;;5.82;1.10;;;39.20;11.70;;;;;;5040145;28;20113;-63
2022/05/15 01:15:00;;;;;;;4.10;1.15;;;39.10;11.20;;;;;;5032748;28;20051;-61
2022/05/15 01:17:27;;;;;;;2.75;1.10;;;39.00;10.90;;;;;;5031451;28;20017;-62
2022/05/15 01:20:03;;;;;;;4.88;0.98;;;38.80;11.10;;;;;;5040581;28;20021;-61
2022/05/15 01:22:31;;;;;;;2.90;1.05;;;38.60;10.80;;;;;;5052700;28;20032;-63
2022/05/15 01:24:57;;;;;;;8.38;1.35;;;38.30;10.80;;;;;;5033728;28;20053;-63
2022/05/15 01:27:24;;;;;;;4.25;1.10;;;38.20;11.70;;;;;;5039175;28;20652;-65
2022/05/15 01:29:50;;;;;;;2.92;1.25;;;38.10;12.60;;;;;;5036845;28;20037;-62
2022/05/15 01:32:18;;;;;;;3.67;1.40;;;38.00;13.10;;;;;;5034611;28;20033;-62
2022/05/15 01:34:45;;;;;;;4.95;1.20;;;37.80;11.70;;;;;;5042697;28;20032;-66
2022/05/15 01:37:11;;;;;;;5.03;1.30;;;37.70;12.00;;;;;;5038261;28;20388;-61
2022/05/15 01:39:38;;;;;;;2.58;1.20;;;37.60;12.90;;;;;;5033696;28;20770;-60
2022/05/15 01:42:05;;;;;;;9.07;1.20;;;37.50;11.80;;;;;;5034325;28;20033;-61
2022/05/15 01:44:32;;;;;;;1.92;0.80;;;37.50;11.90;;;;;;5031699;28;20029;-63
2022/05/15 01:46:58;;;;;;;4.85;0.95;;;37.40;11.30;;;;;;5039402;28;20042;-63
2022/05/15 01:49:25;;;;;;;4.68;1.20;;;37.40;11.10;;;;;;5017347;28;20025;-63
2022/05/15 01:51:52;;;;;;;6.60;1.25;;;37.60;12.00;;;;;;5030832;28;20040;-63
2022/05/15 01:54:18;;;;;;;5.43;1.10;;;37.70;12.10;;;;;;5031611;28;20120;-61
2022/05/15 01:56:45;;;;;;;3.38;1.05;;;37.80;12.40;;;;;;5032272;28;20022;-62
2022/05/15 01:59:11;;;;;;;4.35;1.40;;;37.80;11.70;;;;;;5032481;28;20615;-62
2022/05/15 02:01:38;;;;;;;10.45;1.50;;;37.60;12.30;;;;;;5024736;28;20120;-62
2022/05/15 02:04:04;;;;;;;6.97;1.25;;;37.20;12.00;;;;;;5035245;28;20021;-63
2022/05/15 02:06:31;;;;;;;9.98;1.05;;;36.90;12.00;;;;;;5030926;28;20025;-62
2022/05/15 02:08:57;;;;;;;7.45;1.00;;;36.70;12.90;;;;;;5036068;28;20053;-63
2022/05/15 02:11:23;;;;;;;6.65;1.40;;;36.50;12.10;;;;;;5037955;28;20392;-63
2022/05/15 02:13:50;;;;;;;9.25;1.30;;;36.30;12.10;;;;;;5034302;28;20030;-61
2022/05/15 02:16:16;;;;;;;11.57;6.13;;;36.20;13.10;;;;;;5019214;28;20116;-61
2022/05/15 02:18:43;;;;;;;13.73;10.13;;;36.00;12.60;;;;;;5036865;28;20038;-65
2022/05/15 02:21:09;;;;;;;14.63;10.23;;;35.90;12.80;;;;;;5036128;28;20041;-62
2022/05/15 02:23:36;;;;;;;14.63;6.65;;;35.70;12.80;;;;;;5022444;28;20123;-62
2022/05/15 02:26:02;;;;;;;14.75;4.38;;;35.60;13.40;;;;;;5036798;28;20152;-62
2022/05/15 02:28:29;;;;;;;11.52;3.67;;;35.50;13.80;;;;;;5037341;28;20067;-62
2022/05/15 02:30:55;;;;;;;11.13;4.60;;;35.30;13.30;;;;;;5046227;28;20025;-61
2022/05/15 02:33:22;;;;;;;14.85;5.05;;;35.20;13.80;;;;;;5036255;28;20055;-61
2022/05/15 02:35:48;;;;;;;11.10;6.57;;;35.00;14.40;;;;;;5039799;28;20043;-61
2022/05/15 02:38:15;;;;;;;15.52;6.35;;;34.80;14.30;;;;;;5019174;28;20124;-61
2022/05/15 02:40:41;;;;;;;15.70;6.38;;;34.70;14.00;;;;;;5017747;28;20049;-61
2022/05/15 02:43:07;;;;;;;20.30;6.78;;;34.50;14.40;;;;;;5035290;28;20057;-61
2022/05/15 02:45:34;;;;;;;19.30;6.63;;;34.40;14.20;;;;;;5038120;28;20032;-62
2022/05/15 02:48:00;;;;;;;12.35;6.15;;;34.20;14.50;;;;;;5039065;28;20073;-61
2022/05/15 02:53:11;;;;;;;19.75;5.32;;;34.00;15.00;;;;;;5038489;28;20111;-62
2022/05/15 02:55:38;;;;;;;22.98;5.13;;;33.80;15.40;;;;;;5035460;28;20044;-63
2022/05/15 02:58:04;;;;;;;19.63;5.55;;;33.70;16.00;;;;;;5030554;28;20048;-61
2022/05/15 03:00:31;;;;;;;39.85;5.75;;;33.60;16.40;;;;;;5036806;28;20066;-63
2022/05/15 03:02:58;;;;;;;27.45;5.85;;;33.50;16.80;;;;;;5036055;28;20043;-62
2022/05/15 03:05:24;;;;;;;18.52;4.28;;;33.40;17.00;;;;;;5032614;28;20509;-63
2022/05/15 03:07:50;;;;;;;19.00;3.17;;;33.30;17.20;;;;;;5034356;28;20083;-63
2022/05/15 03:10:19;;;;;;;23.00;3.45;;;33.20;16.60;;;;;;5033697;28;20040;-62
2022/05/15 03:12:46;;;;;;;14.23;3.03;;;33.10;16.60;;;;;;5034062;28;20135;-62
2022/05/15 03:15:14;;;;;;;17.13;3.60;;;33.10;17.20;;;;;;5029901;28;20105;-62
2022/05/15 03:17:42;;;;;;;19.00;3.75;;;32.90;17.10;;;;;;5037022;28;20049;-62
2022/05/15 03:20:12;;;;;;;14.95;3.33;;;32.80;17.10;;;;;;5037388;28;20080;-62
2022/05/15 03:22:38;;;;;;;18.65;3.15;;;32.70;17.30;;;;;;5013676;28;20077;-61
2022/05/15 03:25:05;;;;;;;13.57;3.38;;;32.60;17.30;;;;;;5033817;28;20051;-63
2022/05/15 03:27:31;;;;;;;14.68;3.50;;;32.50;17.90;;;;;;5033678;28;20047;-64
2022/05/15 03:29:58;;;;;;;19.13;4.47;;;32.40;17.50;;;;;;5034756;28;20132;-61
2022/05/15 03:32:24;;;;;;;21.40;4.50;;;32.30;17.80;;;;;;5032930;28;20137;-62
2022/05/15 03:34:50;;;;;;;19.75;4.25;;;32.20;18.90;;;;;;5014306;28;20035;-63
2022/05/15 03:37:17;;;;;;;26.35;5.25;;;32.20;19.40;;;;;;5033750;28;20055;-62
2022/05/15 03:39:43;;;;;;;13.82;4.68;;;32.10;18.80;;;;;;5037026;28;20035;-63
2022/05/15 03:42:10;;;;;;;22.23;5.38;;;32.00;18.30;;;;;;5040450;28;20051;-63
2022/05/15 03:44:37;;;;;;;22.65;6.25;;;31.90;18.40;;;;;;5059101;28;20400;-63
2022/05/15 03:47:05;;;;;;;19.55;6.00;;;31.80;18.70;;;;;;5037001;28;20084;-63
2022/05/15 03:49:31;;;;;;;26.20;6.20;;;31.70;18.60;;;;;;5034797;28;20058;-62
2022/05/15 03:51:58;;;;;;;24.50;6.28;;;31.60;18.70;;;;;;5034187;28;20176;-62
2022/05/15 03:54:24;;;;;;;27.65;6.05;;;31.60;19.50;;;;;;5033730;28;20048;-64
2022/05/15 03:56:51;;;;;;;25.85;6.80;;;31.60;20.00;;;;;;5019489;28;20072;-63
2022/05/15 03:59:28;;;;;;;23.40;6.72;;;31.50;20.10;;;;;;5034066;28;20039;-63
2022/05/15 04:01:54;;;;;;;25.25;6.15;;;31.40;19.50;;;;;;5019383;28;20056;-63
2022/05/15 04:04:21;;;;;;;21.33;6.60;;;31.30;19.50;;;;;;5036668;28;20556;-57
2022/05/15 04:06:47;;;;;;;37.85;7.32;;;31.30;19.50;;;;;;5065353;28;20555;-57
2022/05/15 04:09:14;;;;;;;24.45;6.65;;;31.20;20.00;;;;;;5018038;28;20054;-60
2022/05/15 04:11:40;;;;;;;28.48;6.43;;;31.10;19.90;;;;;;5035440;28;20069;-59
2022/05/15 04:14:07;;;;;;;23.60;7.05;;;31.10;20.10;;;;;;5033907;28;20460;-61
2022/05/15 04:16:34;;;;;;;34.25;7.93;;;31.00;19.70;;;;;;5015559;28;20050;-58
2022/05/15 04:19:01;;;;;;;23.77;6.95;;;30.80;19.20;;;;;;5020712;28;20078;-58
2022/05/15 04:21:28;;;;;;;27.05;6.93;;;30.70;19.30;;;;;;5064282;28;20178;-59
2022/05/15 04:23:54;;;;;;;35.67;6.25;;;30.60;19.40;;;;;;5033222;28;20049;-61
2022/05/15 04:26:21;;;;;;;25.85;7.40;;;30.60;20.10;;;;;;5033187;28;20420;-56
2022/05/15 04:28:47;;;;;;;21.55;6.78;;;30.50;20.30;;;;;;5028317;28;20049;-58
2022/05/15 04:31:15;;;;;;;30.33;7.72;;;30.50;20.50;;;;;;5064931;28;20094;-59
2022/05/15 04:33:42;;;;;;;21.33;7.63;;;30.40;20.40;;;;;;5038543;28;20062;-58
2022/05/15 04:36:09;;;;;;;29.33;8.30;;;30.30;20.40;;;;;;5023939;28;20140;-58
2022/05/15 04:38:35;;;;;;;27.92;8.30;;;30.20;20.40;;;;;;5033891;28;20057;-57
2022/05/15 04:41:02;;;;;;;26.67;8.50;;;30.20;20.80;;;;;;5037370;28;20068;-62
2022/05/15 04:43:28;;;;;;;40.08;9.90;;;30.10;20.70;;;;;;5064922;28;20052;-56
2022/05/15 04:45:54;;;;;;;33.75;9.80;;;30.10;21.80;;;;;;5039926;28;20082;-58
2022/05/15 04:48:21;;;;;;;38.83;10.15;;;30.00;20.90;;;;;;5038423;28;20069;-56
2022/05/15 04:50:47;;;;;;;40.80;10.77;;;29.90;21.00;;;;;;5034356;28;20082;-61
2022/05/15 04:53:14;;;;;;;45.00;12.00;;;29.90;20.90;;;;;;5033976;28;20068;-58
2022/05/15 04:55:40;;;;;;;37.03;11.57;;;29.80;21.00;;;;;;5035082;28;20057;-58
2022/05/15 04:58:06;;;;;;;43.75;12.15;;;29.80;22.10;;;;;;5033455;28;20057;-55
2022/05/15 05:00:33;;;;;;;47.33;13.65;;;29.70;22.30;;;;;;5033362;28;20077;-57
2022/05/15 05:02:59;;;;;;;58.08;15.35;;;29.60;22.20;;;;;;5033752;28;20046;-59
2022/05/15 05:05:26;;;;;;;83.53;21.17;;;29.60;22.30;;;;;;5030885;28;20092;-61
2022/05/15 05:07:52;;;;;;;84.28;21.80;;;29.40;21.60;;;;;;5035478;28;20055;-61
2022/05/15 05:10:19;;;;;;;77.75;20.67;;;29.40;21.80;;;;;;5034769;28;20134;-58
2022/05/15 05:12:45;;;;;;;81.82;22.63;;;29.30;21.80;;;;;;5031975;28;20527;-60
2022/05/15 05:15:13;;;;;;;84.18;22.48;;;29.30;22.30;;;;;;5032286;28;20394;-58
2022/05/15 05:17:41;;;;;;;73.30;22.65;;;29.20;22.20;;;;;;5034132;28;20050;-58
2022/05/15 05:20:08;;;;;;;83.55;22.40;;;29.20;22.40;;;;;;5025826;28;20063;-61
2022/05/15 05:22:35;;;;;;;77.28;22.92;;;29.20;22.30;;;;;;5017502;28;20051;-56
2022/05/15 05:25:01;;;;;;;87.18;23.67;;;29.10;23.00;;;;;;5018995;28;20070;-59
2022/05/15 05:27:28;;;;;;;87.22;23.55;;;29.10;23.30;;;;;;5034468;28;20085;-58
2022/05/15 05:29:54;;;;;;;83.35;22.90;;;29.00;22.40;;;;;;5032629;28;20412;-56
2022/05/15 05:32:21;;;;;;;76.15;22.55;;;28.90;22.30;;;;;;5016517;28;20057;-59
2022/05/15 05:34:47;;;;;;;85.10;22.55;;;28.90;22.50;;;;;;5033947;28;20388;-59
2022/05/15 05:37:17;;;;;;;84.05;23.73;;;28.80;22.40;;;;;;5016476;28;20114;-59
2022/05/15 05:39:44;;;;;;;104.32;23.17;;;28.70;22.80;;;;;;5044957;28;20057;-57
2022/05/15 05:42:11;;;;;;;123.78;22.85;;;28.70;23.40;;;;;;5025297;28;20131;-56
2022/05/15 05:44:37;;;;;;;100.68;22.55;;;28.70;23.00;;;;;;5032626;28;20455;-60
2022/05/15 05:47:04;;;;;;;86.15;24.85;;;28.60;23.80;;;;;;5033566;28;20092;-58
2022/05/15 05:49:31;;;;;;;94.22;25.90;;;28.60;24.10;;;;;;5032635;28;20101;-61
2022/05/15 05:51:57;;;;;;;105.35;27.85;;;28.60;23.90;;;;;;5034904;28;20079;-58
2022/05/15 05:54:24;;;;;;;114.60;29.73;;;28.50;23.70;;;;;;5030855;28;20095;-55
2022/05/15 05:56:50;;;;;;;125.85;33.67;;;28.40;24.50;;;;;;5032823;28;20070;-57
2022/05/15 05:59:16;;;;;;;131.85;33.85;;;28.40;24.70;;;;;;5029962;28;20167;-55
2022/05/15 06:01:43;;;;;;;144.38;34.92;;;28.30;24.20;;;;;;5037465;28;20074;-56
2022/05/15 06:06:54;;;;;;;121.63;41.55;;;28.10;23.70;;;;;;5040641;28;20074;-59
2022/05/15 06:09:20;;;;;;;117.15;35.97;;;28.10;23.90;;;;;;5037466;28;20451;-55
2022/05/15 06:11:47;;;;;;;116.90;34.33;;;28.00;24.30;;;;;;5031788;28;20061;-60
2022/05/15 06:14:13;;;;;;;132.30;34.63;;;27.90;24.30;;;;;;5030306;28;20058;-57
2022/05/15 06:16:39;;;;;;;145.25;32.33;;;27.90;24.80;;;;;;5020291;28;20427;-57
2022/05/15 06:19:06;;;;;;;130.00;31.33;;;27.90;24.50;;;;;;5029574;28;20516;-58
2022/05/15 06:21:32;;;;;;;109.95;31.15;;;27.80;25.10;;;;;;5042142;28;21006;-59
2022/05/15 06:23:58;;;;;;;117.88;31.38;;;27.80;24.80;;;;;;5056894;28;20059;-59
2022/05/15 06:26:25;;;;;;;121.28;29.20;;;27.80;25.20;;;;;;5042174;28;20063;-56
2022/05/15 06:28:51;;;;;;;127.95;29.38;;;27.70;24.60;;;;;;5023649;28;20064;-59
2022/05/15 06:31:17;;;;;;;118.70;29.25;;;27.70;25.20;;;;;;5040241;28;20082;-59
2022/05/15 06:33:44;;;;;;;93.85;27.77;;;27.60;24.90;;;;;;5041424;28;20437;-57
2022/05/15 06:36:10;;;;;;;121.80;30.00;;;27.60;25.20;;;;;;5020351;28;20065;-57
2022/05/15 06:38:40;;;;;;;109.82;29.45;;;27.50;25.00;;;;;;5039281;28;20159;-58
2022/05/15 06:41:11;;;;;;;103.90;31.42;;;27.50;25.00;;;;;;5038495;28;20554;-57
2022/05/15 06:43:38;;;;;;;104.72;30.17;;;27.50;25.20;;;;;;5040000;28;20505;-60
2022/05/15 06:46:05;;;;;;;122.53;30.20;;;27.40;24.90;;;;;;5041005;28;20111;-56
2022/05/15 06:48:33;;;;;;;99.63;29.23;;;27.40;25.10;;;;;;5041458;28;20672;-57
2022/05/15 06:51:00;;;;;;;98.93;28.15;;;27.30;25.30;;;;;;5005362;28;20096;-56
2022/05/15 06:53:27;;;;;;;100.80;29.67;;;27.30;25.20;;;;;;5043224;28;20073;-59
2022/05/15 06:58:37;;;;;;;104.90;28.45;;;27.20;25.20;;;;;;5044489;28;21057;-61
2022/05/15 07:01:04;;;;;;;81.00;26.27;;;27.10;25.10;;;;;;5025544;28;20114;-58
2022/05/15 07:03:30;;;;;;;103.72;29.00;;;27.10;24.90;;;;;;5042639;28;20095;-59
2022/05/15 07:05:57;;;;;;;109.22;28.73;;;27.00;24.70;;;;;;5039404;28;20076;-59
2022/05/15 07:08:23;;;;;;;102.53;29.02;;;27.00;25.00;;;;;;5025277;28;20112;-54
2022/05/15 07:10:49;;;;;;;109.90;28.23;;;26.90;25.20;;;;;;5045043;28;20081;-59
2022/05/15 07:13:16;;;;;;;113.20;27.45;;;26.90;24.80;;;;;;5044763;28;20134;-58
2022/05/15 07:15:42;;;;;;;99.93;28.48;;;26.80;25.00;;;;;;5042281;28;20069;-61
2022/05/15 07:18:09;;;;;;;93.90;28.02;;;26.70;25.00;;;;;;5043709;28;20094;-59
2022/05/15 07:20:36;;;;;;;82.30;25.65;;;26.70;25.20;;;;;;5042174;28;20110;-60
2022/05/15 07:23:03;;;;;;;91.93;25.88;;;26.60;25.40;;;;;;5044803;28;20093;-57
2022/05/15 07:25:29;;;;;;;96.57;25.80;;;26.60;25.50;;;;;;5039790;28;20069;-57
2022/05/15 07:27:56;;;;;;;87.07;24.08;;;26.60;25.60;;;;;;5042675;28;20096;-57
2022/05/15 07:30:22;;;;;;;96.30;25.45;;;26.60;25.80;;;;;;5029222;28;20079;-60
2022/05/15 07:32:49;;;;;;;95.75;24.63;;;26.50;25.80;;;;;;5050104;28;20069;-57
2022/05/15 07:35:16;;;;;;;88.38;24.33;;;26.50;26.00;;;;;;5044358;28;20114;-57
2022/05/15 07:37:42;;;;;;;75.10;22.45;;;26.40;25.90;;;;;;5042383;28;20627;-62
2022/05/15 07:40:10;;;;;;;95.63;24.42;;;26.40;26.00;;;;;;5043952;28;20512;-59
2022/05/15 07:42:38;;;;;;;87.60;22.98;;;26.40;26.10;;;;;;5042576;28;20066;-62
2022/05/15 07:45:05;;;;;;;88.97;25.75;;;26.30;26.20;;;;;;5043770;28;20065;-57
2022/05/15 07:47:32;;;;;;;73.47;22.33;;;26.30;26.10;;;;;;5040719;28;20081;-56
2022/05/15 07:49:58;;;;;;;112.55;23.40;;;26.20;26.30;;;;;;5042126;28;20090;-56
2022/05/15 07:52:25;;;;;;;76.55;21.42;;;26.30;26.70;;;;;;5044668;28;20069;-57
2022/05/15 07:54:51;;;;;;;57.03;20.02;;;26.30;26.60;;;;;;5045338;28;20128;-54
2022/05/15 07:57:21;;;;;;;66.72;19.65;;;26.30;26.40;;;;;;5041756;28;20209;-51
2022/05/15 07:59:47;;;;;;;88.95;20.55;;;26.30;26.10;;;;;;5036417;28;20478;-53
2022/05/15 08:02:14;;;;;;;60.03;18.60;;;26.30;26.60;;;;;;5039109;28;20433;-55
2022/05/15 08:10:11;;;;;;;51.63;15.32;;;26.30;26.40;;;;;;5040894;28;20109;-58
2022/05/15 08:12:37;;;;;;;56.10;16.48;;;26.30;26.50;;;;;;5039224;28;20066;-57
2022/05/15 08:15:05;;;;;;;57.10;15.18;;;26.20;26.70;;;;;;5041804;28;20218;-55
2022/05/15 08:17:32;;;;;;;49.90;16.02;;;26.20;26.70;;;;;;5041456;28;20102;-55
2022/05/15 08:25:28;;;;;;;39.10;13.32;;;26.10;26.60;;;;;;5041076;28;20533;-57
2022/05/15 08:27:54;;;;;;;59.33;14.88;;;26.10;26.20;;;;;;5026380;28;20066;-61
2022/05/15 08:30:21;;;;;;;46.75;11.82;;;26.10;26.20;;;;;;5024964;28;20476;-57
2022/05/15 08:32:51;;;;;;;42.47;12.80;;;26.00;26.20;;;;;;5040245;28;20068;-55
2022/05/15 08:35:18;;;;;;;33.83;11.60;;;26.10;26.30;;;;;;5040029;28;20062;-57
2022/05/15 08:37:45;;;;;;;41.47;11.00;;;26.00;26.10;;;;;;5041586;28;20653;-59
2022/05/15 08:40:12;;;;;;;38.80;10.75;;;26.00;26.10;;;;;;5040835;28;20085;-57
2022/05/15 08:42:38;;;;;;;30.85;9.82;;;26.00;26.30;;;;;;5022026;28;20483;-59
2022/05/15 08:45:11;;;;;;;31.80;8.73;;;26.00;26.60;;;;;;5038537;28;20079;-56
2022/05/15 08:47:44;;;;;;;29.38;8.63;;;26.00;25.70;;;;;;5040062;28;20100;-55
2022/05/15 08:50:20;;;;;;;25.48;7.85;;;25.90;25.70;;;;;;5041054;28;20080;-55
2022/05/15 08:53:08;;;;;;;21.70;6.72;;;25.90;25.70;;;;;;5041217;28;20076;-56
2022/05/15 08:55:57;;;;;;;18.15;5.25;;;25.90;25.20;;;;;;5038694;28;20214;-57
2022/05/15 08:58:26;;;;;;;15.48;4.10;;;26.00;24.20;;;;;;5041065;28;20078;-58
2022/05/15 09:00:54;;;;;;;11.63;4.03;;;26.00;23.70;;;;;;5041732;28;20090;-56
2022/05/15 09:03:30;;;;;;;16.05;5.10;;;26.00;23.10;;;;;;5037058;28;20496;-54
2022/05/15 09:06:03;;;;;;;19.98;5.45;;;26.10;22.70;;;;;;5039040;28;20070;-55
2022/05/15 09:08:47;;;;;;;10.73;3.47;;;26.20;22.10;;;;;;5040791;28;20072;-59
2022/05/15 09:11:25;;;;;;;11.75;2.50;;;26.30;21.50;;;;;;5040217;28;20093;-60
2022/05/15 09:14:00;;;;;;;11.80;3.00;;;26.90;20.50;;;;;;5039661;28;20072;-60
2022/05/15 09:16:28;;;;;;;11.63;3.00;;;27.30;19.90;;;;;;5036324;28;20072;-59
2022/05/15 09:19:08;;;;;;;7.38;2.42;;;27.50;19.30;;;;;;5038070;28;20085;-59
2022/05/15 09:21:35;;;;;;;11.43;2.03;;;27.70;19.20;;;;;;5041955;28;20168;-59
2022/05/15 09:24:18;;;;;;;10.25;2.58;;;27.90;19.00;;;;;;5022165;28;20425;-59
2022/05/15 09:26:48;;;;;;;6.85;2.00;;;28.00;18.90;;;;;;5040323;28;20107;-59
2022/05/15 09:29:28;;;;;;;15.52;2.55;;;28.20;18.90;;;;;;5024836;28;20075;-59
2022/05/15 09:31:54;;;;;;;9.60;3.75;;;28.20;19.00;;;;;;5040438;28;20071;-59
2022/05/15 09:34:23;;;;;;;16.45;4.32;;;28.30;19.10;;;;;;5036926;28;20090;-59
2022/05/15 09:36:51;;;;;;;12.02;3.80;;;28.40;18.90;;;;;;5039222;28;20092;-58
2022/05/15 09:39:35;;;;;;;10.50;3.40;;;28.30;18.80;;;;;;5038260;28;20066;-60
2022/05/15 09:45:07;;;;;;;6.40;2.47;;;28.50;18.50;;;;;;5052828;22;20126;-60
2022/05/15 09:47:45;;;;;;;11.20;2.58;;;28.50;18.50;;;;;;5023147;28;20071;-60
2022/05/15 09:50:40;;;;;;;11.45;2.08;;;28.50;18.60;;;;;;5019626;28;20174;-60
2022/05/15 09:53:13;;;;;;;11.10;1.90;;;28.40;18.20;;;;;;5020783;28;20151;-60
2022/05/15 09:55:40;;;;;;;7.50;1.33;;;28.30;18.30;;;;;;5039103;23;20068;-61
2022/05/15 09:58:19;;;;;;;5.18;1.80;;;28.30;17.90;;;;;;5016583;28;20122;-60
2022/05/15 10:00:46;;;;;;;9.52;2.70;;;28.20;17.70;;;;;;5015633;28;20073;-59
2022/05/15 10:03:23;;;;;;;14.85;2.97;;;28.20;17.80;;;;;;5015281;28;20079;-59
2022/05/15 10:06:06;;;;;;;4.93;2.00;;;28.30;17.50;;;;;;5014965;28;20052;-61
2022/05/15 10:08:33;;;;;;;9.90;2.20;;;28.20;17.40;;;;;;5007718;28;20072;-57
2022/05/15 10:11:26;;;;;;;14.10;2.15;;;28.10;17.50;;;;;;5018972;28;20063;-60
2022/05/15 10:13:55;;;;;;;7.13;2.17;;;28.10;18.00;;;;;;5014106;28;20071;-60
2022/05/15 10:16:24;;;;;;;11.80;2.38;;;28.10;18.00;;;;;;4996416;28;20068;-61
2022/05/15 10:19:02;;;;;;;9.18;2.10;;;28.00;19.00;;;;;;5015379;28;20422;-59
2022/05/15 10:21:51;;;;;;;9.43;2.40;;;27.90;19.80;;;;;;5016568;28;20098;-60
2022/05/15 10:24:30;;;;;;;13.82;3.08;;;27.80;20.10;;;;;;5018485;28;20102;-59
2022/05/15 10:27:20;;;;;;;13.35;2.08;;;27.70;19.70;;;;;;5019943;28;20081;-56
2022/05/15 10:30:07;;;;;;;7.82;2.22;;;27.50;20.10;;;;;;5022267;28;20066;-59
2022/05/15 10:32:41;;;;;;;11.45;3.10;;;27.50;20.30;;;;;;5019502;28;20090;-60
2022/05/15 10:35:14;;;;;;;14.77;3.05;;;27.30;21.30;;;;;;5021811;28;20083;-60
2022/05/15 10:38:12;;;;;;;11.40;2.72;;;27.20;21.80;;;;;;5019106;28;20541;-59
2022/05/15 10:40:41;;;;;;;10.75;2.47;;;27.10;21.80;;;;;;5012341;28;20099;-58
2022/05/15 10:43:29;;;;;;;17.95;2.85;;;27.00;22.20;;;;;;5019714;28;20152;-59
2022/05/15 10:46:19;;;;;;;10.20;2.50;;;26.90;22.40;;;;;;5021723;28;20113;-58
2022/05/15 10:49:01;;;;;;;6.50;1.90;;;26.80;22.30;;;;;;5038840;28;20119;-58
2022/05/15 10:51:38;;;;;;;7.88;2.25;;;26.70;22.00;;;;;;5007054;28;20418;-59
2022/05/15 10:57:26;;;;;;;9.68;2.60;;;26.50;22.60;;;;;;5022279;28;20164;-59
2022/05/15 11:00:06;;;;;;;7.95;2.40;;;26.50;22.40;;;;;;5024307;28;20084;-60
2022/05/15 11:02:33;;;;;;;11.23;2.47;;;26.40;22.50;;;;;;5004159;28;20116;-59
2022/05/15 11:05:09;;;;;;;13.43;2.90;;;26.30;22.60;;;;;;5021756;28;20064;-59
2022/05/15 11:08:00;;;;;;;9.15;2.50;;;26.30;23.20;;;;;;5020276;28;20067;-59
2022/05/15 11:10:32;;;;;;;10.45;2.47;;;26.10;22.70;;;;;;5021314;28;20583;-58
2022/05/15 11:13:20;;;;;;;10.45;2.50;;;26.10;23.10;;;;;;5020509;28;20078;-59
2022/05/15 11:15:58;;;;;;;10.38;2.75;;;26.00;23.50;;;;;;5021209;28;20077;-59
2022/05/15 11:18:59;;;;;;;12.35;2.13;;;25.80;23.20;;;;;;5022528;28;20074;-61
2022/05/15 11:21:34;;;;;;;12.95;2.28;;;25.70;23.10;;;;;;5022119;28;20563;-60
2022/05/15 11:24:38;;;;;;;10.82;2.63;;;25.60;23.00;;;;;;5022046;28;20077;-58
2022/05/15 11:27:28;;;;;;;10.65;2.80;;;25.60;23.60;;;;;;5005255;28;20102;-58
2022/05/15 11:29:59;;;;;;;8.05;2.42;;;25.40;24.20;;;;;;5023897;28;20078;-59
2022/05/15 11:32:39;;;;;;;9.40;1.98;;;25.30;24.70;;;;;;5025101;28;20559;-60
2022/05/15 11:35:18;;;;;;;11.70;2.10;;;25.20;24.70;;;;;;5021639;28;20095;-60
2022/05/15 11:37:56;;;;;;;15.32;3.00;;;25.20;24.90;;;;;;5018997;28;20109;-61
2022/05/15 11:40:44;;;;;;;11.32;2.30;;;25.10;24.20;;;;;;5022329;28;20117;-61
2022/05/15 11:43:29;;;;;;;9.40;2.50;;;25.00;24.80;;;;;;5024538;28;20096;-60
2022/05/15 11:46:00;;;;;;;14.98;2.80;;;24.90;24.60;;;;;;5020427;28;20160;-59
2022/05/15 11:48:49;;;;;;;12.25;2.50;;;24.90;24.40;;;;;;5005854;28;20083;-59
2022/05/15 11:51:16;;;;;;;18.95;3.03;;;24.90;24.60;;;;;;5022281;28;20071;-60
2022/05/15 11:54:28;;;;;;;13.70;2.55;;;24.80;24.30;;;;;;5021598;28;20166;-60
2022/05/15 11:56:56;;;;;;;13.45;3.00;;;24.70;24.70;;;;;;4961140;28;20117;-60
2022/05/15 11:59:32;;;;;;;14.25;2.78;;;24.60;24.70;;;;;;4960699;28;20149;-60
2022/05/15 12:02:12;;;;;;;11.40;3.27;;;24.50;24.50;;;;;;4960450;28;20083;-57
2022/05/15 12:04:39;;;;;;;17.52;3.75;;;24.50;24.60;;;;;;4961114;28;20068;-58
2022/05/15 12:07:09;;;;;;;24.30;4.50;;;24.50;24.30;;;;;;4962784;28;20159;-60
2022/05/15 12:09:40;;;;;;;24.25;4.50;;;24.50;24.30;;;;;;4960270;28;20065;-60
2022/05/15 12:12:27;;;;;;;24.95;5.00;;;24.40;25.60;;;;;;4963321;28;20547;-58
2022/05/15 12:15:13;;;;;;;20.02;4.60;;;24.40;25.80;;;;;;4962805;28;20313;-60
2022/05/15 12:17:55;;;;;;;19.58;4.50;;;24.30;25.80;;;;;;4961290;28;20574;-62
2022/05/15 12:20:30;;;;;;;16.15;4.65;;;24.30;26.20;;;;;;4935560;28;20144;-59
2022/05/15 12:22:59;;;;;;;22.05;5.28;;;24.20;26.40;;;;;;4961914;28;20062;-61
2022/05/15 12:25:35;;;;;;;26.55;5.05;;;24.10;26.00;;;;;;4950188;28;20078;-58
2022/05/15 12:31:33;;;;;;;26.88;5.32;;;24.10;25.20;;;;;;4958814;28;20084;-62
2022/05/15 12:34:45;;;;;;;24.90;5.60;;;24.10;25.40;;;;;;5019171;28;20073;-56
2022/05/15 12:37:25;;;;;;;25.42;5.63;;;24.10;26.00;;;;;;4955066;28;20429;-61
2022/05/15 12:39:53;;;;;;;22.77;5.78;;;24.00;26.00;;;;;;4952983;28;20084;-61
2022/05/15 12:42:24;;;;;;;23.33;6.50;;;24.00;25.60;;;;;;4938860;28;20097;-60
2022/05/15 12:45:12;;;;;;;28.95;6.78;;;24.00;26.20;;;;;;4954803;28;20151;-61
2022/05/15 12:47:40;;;;;;;33.83;6.88;;;23.80;26.90;;;;;;4939366;28;20088;-60
2022/05/15 12:50:22;;;;;;;25.40;6.53;;;23.80;27.30;;;;;;4954607;28;20101;-59
2022/05/15 12:53:03;;;;;;;41.88;7.78;;;23.70;27.20;;;;;;4953692;28;20068;-60
2022/05/15 12:55:35;;;;;;;36.70;7.00;;;23.60;27.60;;;;;;4953547;28;20078;-61
2022/05/15 12:58:07;;;;;;;40.03;8.60;;;23.50;27.70;;;;;;4956017;28;20143;-59
2022/05/15 13:00:38;;;;;;;35.67;8.13;;;23.60;27.70;;;;;;4969974;28;20594;-60
2022/05/15 13:03:08;;;;;;;33.33;7.20;;;23.60;27.50;;;;;;4967695;28;20078;-61
2022/05/15 13:05:57;;;;;;;34.92;7.93;;;23.60;27.80;;;;;;4954762;28;20618;-62
2022/05/15 13:08:25;;;;;;;37.50;7.65;;;23.60;27.60;;;;;;5007500;28;20085;-59
2022/05/15 13:10:58;;;;;;;37.90;7.80;;;23.60;27.10;;;;;;5021548;28;20072;-60
2022/05/15 13:13:30;;;;;;;32.55;8.75;;;23.60;28.60;;;;;;5004610;28;20542;-60
2022/05/15 13:15:58;;;;;;;39.40;8.98;;;23.50;27.70;;;;;;5019368;28;20066;-60
2022/05/15 13:18:29;;;;;;;33.40;8.27;;;23.50;27.90;;;;;;5018011;28;20069;-61
2022/05/15 13:21:07;;;;;;;40.33;7.53;;;23.40;28.00;;;;;;5006027;28;20089;-60